Time;durP1;ratioP1;P1;durP2;ratioP2;P2;SDS_P1;SDS_P2;PMS_P1;PMS_P2;Temp;Humidity;BMP_temperature;BMP_pressure;BME280_temperature;BME280_humidity;BME280_pressure;Samples;Min_cycle;Max_cycle;Signal;HPM_P1;HPM_P2
2023/09/12 00:01:42;;;;;;;0.75;0.75;;;;;;;20.90;58.46;99684.22;5344726;26;33654;-80
2023/09/12 00:04:11;;;;;;;15.65;1.50;;;;;;;20.85;58.52;99687.31;5345761;26;33914;-79
2023/09/12 00:06:38;;;;;;;0.77;0.77;;;;;;;20.87;58.49;99685.31;5345556;26;33476;-79
2023/09/12 00:09:06;;;;;;;1.30;1.20;;;;;;;20.74;58.85;99689.22;5325542;26;32810;-79
2023/09/12 00:11:34;;;;;;;4.50;2.28;;;;;;;20.64;59.33;99689.19;5345047;26;34085;-79
2023/09/12 00:14:02;;;;;;;0.70;0.70;;;;;;;20.68;59.25;99694.16;5363594;26;34297;-79
2023/09/12 00:16:29;;;;;;;0.98;0.80;;;;;;;21.09;57.56;99692.34;5345681;26;32707;-79
2023/09/12 00:18:57;;;;;;;1.23;1.05;;;;;;;21.25;56.76;99691.81;5345203;26;34698;-79
2023/09/12 00:21:25;;;;;;;0.85;0.85;;;;;;;20.73;58.37;99687.53;5363915;26;32986;-79
2023/09/12 00:23:53;;;;;;;0.57;0.57;;;;;;;20.60;58.93;99685.06;5363649;26;33618;-79
2023/09/12 00:26:21;;;;;;;5.05;2.33;;;;;;;20.73;58.81;99695.59;5345727;26;33065;-79
2023/09/12 00:28:51;;;;;;;2.03;1.17;;;;;;;20.62;59.13;99686.66;5326327;26;33119;-79
2023/09/12 00:31:19;;;;;;;0.60;0.60;;;;;;;20.74;58.72;99679.34;5345726;26;34053;-79
2023/09/12 00:33:47;;;;;;;0.57;0.57;;;;;;;20.52;59.22;99685.75;5344974;26;34509;-79
2023/09/12 00:36:15;;;;;;;0.45;0.45;;;;;;;20.60;59.12;99690.44;5363593;26;33502;-80
2023/09/12 00:38:43;;;;;;;0.50;0.50;;;;;;;20.65;58.93;99691.75;5344844;26;33498;-79
2023/09/12 00:41:11;;;;;;;1.73;0.90;;;;;;;20.65;58.69;99691.75;5343237;26;33750;-80
2023/09/12 00:43:39;;;;;;;1.42;0.80;;;;;;;20.53;59.30;99695.50;5345421;26;34574;-79
2023/09/12 00:46:06;;;;;;;1.40;1.30;;;;;;;20.61;58.80;99694.84;5345041;26;33406;-79
2023/09/12 00:48:37;;;;;;;2.37;0.90;;;;;;;20.60;58.91;99693.97;5345812;26;33823;-79
2023/09/12 00:51:04;;;;;;;0.95;0.90;;;;;;;20.53;59.19;99692.81;5345153;26;33805;-79
2023/09/12 00:53:33;;;;;;;2.28;1.17;;;;;;;20.50;59.20;99692.22;5363841;26;34640;-79
2023/09/12 00:56:01;;;;;;;2.92;1.25;;;;;;;20.56;59.04;99691.72;5326606;26;33137;-79
2023/09/12 00:58:29;;;;;;;5.28;1.83;;;;;;;20.58;58.83;99690.56;5363855;26;34074;-79
2023/09/12 01:00:57;;;;;;;4.43;2.00;;;;;;;20.61;58.67;99686.78;5344833;26;33927;-79
2023/09/12 01:03:25;;;;;;;1.40;1.00;;;;;;;20.40;59.48;99692.12;5363365;26;34171;-79
2023/09/12 01:05:53;;;;;;;1.00;0.70;;;;;;;20.48;59.35;99695.03;5363487;26;33431;-80
2023/09/12 01:08:21;;;;;;;4.68;0.45;;;;;;;20.37;59.47;99693.25;5363772;26;33991;-79
2023/09/12 01:10:50;;;;;;;0.90;0.90;;;;;;;20.40;59.13;99682.25;5308703;26;34855;-80
2023/09/12 01:13:18;;;;;;;5.18;1.42;;;;;;;20.39;59.13;99675.19;5363538;26;33595;-80
2023/09/12 01:15:45;;;;;;;2.50;0.90;;;;;;;20.38;59.23;99691.44;5345422;26;33044;-80
2023/09/12 01:18:13;;;;;;;1.15;0.90;;;;;;;20.37;59.33;99685.22;5363320;26;33774;-79
2023/09/12 01:20:55;;;;;;;0.60;0.60;;;;;;;20.39;59.01;99685.91;5343386;26;34077;-80
2023/09/12 01:23:32;;;;;;;0.80;0.80;;;;;;;20.20;59.52;99692.00;5327206;26;32867;-80
2023/09/12 01:26:17;;;;;;;1.65;1.37;;;;;;;20.11;59.89;99682.06;5344804;26;33150;-79
2023/09/12 01:28:47;;;;;;;0.77;0.73;;;;;;;20.33;59.35;99685.59;5363702;26;34134;-79
2023/09/12 01:31:15;;;;;;;0.73;0.62;;;;;;;20.44;58.52;99688.19;5363406;26;33988;-80
2023/09/12 01:33:42;;;;;;;3.37;0.43;;;;;;;20.30;59.17;99686.72;5326505;26;33001;-79
2023/09/12 01:36:10;;;;;;;0.70;0.70;;;;;;;20.29;59.13;99679.66;5344724;26;33718;-80
2023/09/12 01:38:38;;;;;;;2.12;1.00;;;;;;;20.60;57.98;99672.50;5343276;26;32917;-79
2023/09/12 01:41:07;;;;;;;2.72;2.15;;;;;;;20.22;59.15;99681.16;5342502;26;32933;-80
2023/09/12 01:43:36;;;;;;;0.70;0.70;;;;;;;20.17;59.43;99681.53;5361417;26;34261;-80
2023/09/12 01:46:04;;;;;;;1.85;1.20;;;;;;;20.04;60.17;99685.41;5363062;26;33360;-81
2023/09/12 01:48:34;;;;;;;0.77;0.57;;;;;;;20.01;60.22;99686.53;5345078;26;33574;-80
2023/09/12 01:51:04;;;;;;;0.83;0.83;;;;;;;20.07;60.17;99685.97;5345176;26;33964;-80
2023/09/12 01:53:33;;;;;;;1.48;1.20;;;;;;;20.15;59.84;99691.56;5363284;26;34448;-80
2023/09/12 01:56:01;;;;;;;1.15;0.82;;;;;;;20.14;59.59;99689.84;5344751;26;33189;-79
2023/09/12 01:58:30;;;;;;;1.48;1.12;;;;;;;20.46;58.46;99691.59;5344634;26;34605;-80
2023/09/12 02:00:58;;;;;;;0.62;0.62;;;;;;;20.33;58.52;99690.97;5363495;26;33637;-80
2023/09/12 02:03:26;;;;;;;2.65;1.25;;;;;;;20.01;59.89;99694.56;5325497;26;33912;-80
2023/09/12 02:05:54;;;;;;;0.68;0.50;;;;;;;19.85;60.36;99694.16;5363158;26;33279;-80
2023/09/12 02:08:21;;;;;;;1.12;1.02;;;;;;;19.84;60.30;99695.97;5345184;26;33715;-80
2023/09/12 02:10:50;;;;;;;0.57;0.57;;;;;;;19.78;60.74;99706.34;5326712;26;32976;-78
2023/09/12 02:13:17;;;;;;;2.22;1.23;;;;;;;19.80;60.71;99699.06;5363091;26;33872;-78
2023/09/12 02:15:45;;;;;;;2.40;1.02;;;;;;;19.89;60.36;99703.63;5344639;26;32557;-79
2023/09/12 02:18:13;;;;;;;0.52;0.50;;;;;;;19.75;60.82;99711.97;5326587;26;32689;-79
2023/09/12 02:20:45;;;;;;;0.73;0.73;;;;;;;19.84;60.26;99700.47;5363171;26;34462;-80
2023/09/12 02:23:13;;;;;;;0.75;0.75;;;;;;;19.76;60.54;99706.50;5345625;26;34077;-80
2023/09/12 02:25:41;;;;;;;0.75;0.62;;;;;;;19.65;61.01;99704.72;5343630;26;34236;-80
2023/09/12 02:28:09;;;;;;;1.02;0.88;;;;;;;19.66;61.09;99706.41;5344869;26;33601;-80
2023/09/12 02:30:40;;;;;;;1.48;0.82;;;;;;;19.81;60.45;99704.28;5363067;26;34385;-80
2023/09/12 02:33:08;;;;;;;1.73;0.90;;;;;;;19.65;60.93;99704.72;5346105;26;33009;-80
2023/09/12 02:35:36;;;;;;;0.52;0.52;;;;;;;19.66;61.10;99703.72;5326381;26;32451;-79
2023/09/12 02:38:04;;;;;;;3.78;2.08;;;;;;;19.79;60.64;99702.69;5345154;26;34192;-80
2023/09/12 02:40:32;;;;;;;0.95;0.90;;;;;;;19.73;60.71;99703.22;5364268;26;33529;-80
2023/09/12 02:42:59;;;;;;;3.72;1.90;;;;;;;19.57;61.35;99704.44;5345681;26;35442;-80
2023/09/12 02:45:27;;;;;;;1.37;1.27;;;;;;;19.69;61.01;99698.09;5326314;26;32653;-80
2023/09/12 02:47:55;;;;;;;0.80;0.80;;;;;;;19.61;61.17;99697.06;5326996;26;33263;-79
2023/09/12 02:50:23;;;;;;;0.28;0.28;;;;;;;19.48;61.38;99697.19;5365812;26;34112;-80
2023/09/12 02:52:51;;;;;;;0.62;0.62;;;;;;;19.52;61.37;99704.00;5327276;26;33114;-80
2023/09/12 02:55:18;;;;;;;2.12;1.33;;;;;;;19.59;61.10;99699.81;5344889;26;31844;-79
2023/09/12 02:57:46;;;;;;;0.80;0.80;;;;;;;19.56;61.38;99691.16;5345702;26;34489;-80
2023/09/12 03:00:14;;;;;;;0.98;0.65;;;;;;;19.55;61.27;99701.03;5345639;26;35105;-80
2023/09/12 03:02:42;;;;;;;1.15;1.00;;;;;;;19.45;61.62;99694.75;5344544;26;33057;-80
2023/09/12 03:05:11;;;;;;;1.80;1.35;;;;;;;19.40;61.74;99691.59;5345992;26;34151;-80
2023/09/12 03:07:38;;;;;;;2.62;0.90;;;;;;;19.57;61.16;99688.37;5326813;26;33184;-80
2023/09/12 03:10:07;;;;;;;2.62;0.90;;;;;;;19.59;61.03;99697.13;5364370;26;34090;-80
2023/09/12 03:12:37;;;;;;;0.25;0.25;;;;;;;19.56;61.15;99694.72;5346080;26;33061;-79
2023/09/12 03:15:05;;;;;;;2.22;0.82;;;;;;;19.48;61.41;99694.50;5363928;26;33086;-80
2023/09/12 03:17:37;;;;;;;0.80;0.80;;;;;;;19.50;61.11;99697.03;5346915;26;33645;-80
2023/09/12 03:20:08;;;;;;;0.50;0.50;;;;;;;19.52;61.20;99706.66;5326918;26;32982;-80
2023/09/12 03:22:37;;;;;;;0.57;0.57;;;;;;;19.62;60.76;99706.78;5327889;26;33994;-80
2023/09/12 03:25:05;;;;;;;2.17;0.77;;;;;;;19.53;60.83;99707.50;5345866;26;32298;-79
2023/09/12 03:27:33;;;;;;;1.50;1.40;;;;;;;19.45;61.30;99700.09;5364786;26;34665;-80
2023/09/12 03:30:03;;;;;;;0.80;0.80;;;;;;;19.43;61.27;99707.41;5327651;26;33804;-79
2023/09/12 03:32:31;;;;;;;4.53;1.60;;;;;;;19.35;61.22;99709.84;5327120;26;33088;-79
2023/09/12 03:34:59;;;;;;;0.75;0.68;;;;;;;19.56;60.34;99707.25;5345874;26;33523;-79
2023/09/12 03:37:28;;;;;;;2.83;2.58;;;;;;;19.36;61.29;99708.88;5363174;26;34655;-79
2023/09/12 03:39:56;;;;;;;0.75;0.30;;;;;;;19.24;61.98;99708.06;5364462;26;33143;-79
2023/09/12 03:42:23;;;;;;;2.80;2.25;;;;;;;19.31;61.77;99713.75;5344506;26;33858;-80
2023/09/12 03:45:05;;;;;;;1.17;1.08;;;;;;;19.23;62.00;99714.41;5348136;26;32274;-80
2023/09/12 03:47:33;;;;;;;1.20;1.00;;;;;;;19.10;62.43;99717.22;5363750;26;32694;-80
2023/09/12 03:50:00;;;;;;;4.65;1.42;;;;;;;19.26;62.00;99710.59;5327573;26;32960;-80
2023/09/12 03:52:28;;;;;;;1.10;1.10;;;;;;;19.34;61.54;99717.03;5344518;26;33677;-80
2023/09/12 03:54:56;;;;;;;1.02;0.73;;;;;;;19.27;61.70;99715.81;5345821;26;33212;-80
2023/09/12 03:57:25;;;;;;;3.75;1.30;;;;;;;19.22;61.91;99709.16;5363817;26;33882;-80
2023/09/12 03:59:53;;;;;;;1.17;1.02;;;;;;;19.30;61.65;99707.56;5346051;26;33943;-79
2023/09/12 04:02:21;;;;;;;0.75;0.75;;;;;;;19.40;61.25;99707.66;5362893;26;34497;-78
2023/09/12 04:04:49;;;;;;;0.77;0.75;;;;;;;19.28;61.60;99704.16;5363441;26;33242;-79
2023/09/12 04:07:17;;;;;;;0.50;0.50;;;;;;;19.19;61.78;99700.41;5366041;26;34349;-80
2023/09/12 04:09:45;;;;;;;1.90;1.67;;;;;;;19.32;61.53;99707.41;5345387;26;32885;-80
2023/09/12 04:12:13;;;;;;;2.72;1.30;;;;;;;19.41;60.95;99706.66;5327571;26;32654;-79
2023/09/12 04:14:40;;;;;;;0.85;0.70;;;;;;;19.36;61.03;99712.41;5365238;26;32927;-80
2023/09/12 04:17:08;;;;;;;1.23;1.15;;;;;;;19.26;61.48;99705.25;5327398;26;33262;-80
2023/09/12 04:19:36;;;;;;;2.28;1.25;;;;;;;19.21;61.71;99712.81;5364384;26;33575;-79
2023/09/12 04:22:04;;;;;;;12.88;0.75;;;;;;;19.21;61.78;99712.81;5344796;26;33871;-81
2023/09/12 04:24:32;;;;;;;4.57;1.80;;;;;;;19.09;62.63;99712.84;5364036;26;33032;-80
2023/09/12 04:27:00;;;;;;;1.08;1.05;;;;;;;19.17;62.16;99712.19;5308848;26;34067;-80
2023/09/12 04:29:28;;;;;;;2.60;1.45;;;;;;;19.16;62.57;99713.19;5345420;26;33746;-80
2023/09/12 04:31:59;;;;;;;1.90;1.40;;;;;;;19.23;62.38;99713.53;5327059;26;32974;-81
2023/09/12 04:34:27;;;;;;;2.87;1.58;;;;;;;19.23;62.33;99721.56;5364193;26;33061;-80
2023/09/12 04:36:55;;;;;;;3.20;1.83;;;;;;;19.36;61.80;99722.25;5345500;26;33958;-79
2023/09/12 04:39:23;;;;;;;3.62;1.65;;;;;;;19.38;61.57;99720.34;5326986;26;33793;-80
2023/09/12 04:41:51;;;;;;;0.75;0.75;;;;;;;19.29;62.07;99726.44;5345198;26;33652;-80
2023/09/12 04:44:19;;;;;;;2.83;1.67;;;;;;;19.16;62.33;99715.84;5362813;26;34172;-79
2023/09/12 04:46:47;;;;;;;1.33;0.93;;;;;;;19.13;62.25;99716.97;5345374;26;33365;-79
2023/09/12 04:49:15;;;;;;;0.55;0.52;;;;;;;19.16;62.30;99711.34;5326125;26;33374;-80
2023/09/12 04:51:43;;;;;;;1.65;1.27;;;;;;;19.17;62.46;99722.91;5345038;26;33581;-79
2023/09/12 04:54:11;;;;;;;3.17;2.35;;;;;;;19.27;62.36;99726.53;5326582;26;32924;-79
2023/09/12 04:56:39;;;;;;;3.53;0.62;;;;;;;19.44;61.71;99727.84;5345398;26;32533;-79
2023/09/12 04:59:06;;;;;;;0.88;0.80;;;;;;;19.38;62.01;99733.72;5360579;26;33034;-79
2023/09/12 05:01:34;;;;;;;1.60;1.50;;;;;;;19.39;62.38;99736.25;5361200;26;34603;-80
2023/09/12 05:04:03;;;;;;;1.02;1.02;;;;;;;19.57;62.03;99731.25;5306112;26;33103;-79
2023/09/12 05:06:30;;;;;;;1.12;0.98;;;;;;;19.59;61.78;99739.97;5342415;26;33214;-80
2023/09/12 05:08:58;;;;;;;4.45;1.37;;;;;;;19.57;62.08;99741.09;5323952;26;33826;-79
2023/09/12 05:11:26;;;;;;;1.67;1.55;;;;;;;19.66;61.97;99730.50;5342204;26;33364;-79
2023/09/12 05:13:55;;;;;;;1.08;1.08;;;;;;;19.93;61.19;99739.91;5341242;26;32677;-79
2023/09/12 05:16:23;;;;;;;0.43;0.43;;;;;;;20.02;61.12;99739.12;5324686;26;32978;-79
2023/09/12 05:18:51;;;;;;;2.92;1.08;;;;;;;20.07;61.29;99738.75;5342372;26;34140;-80
2023/09/12 05:21:20;;;;;;;1.33;1.23;;;;;;;20.05;61.53;99733.53;5342484;26;35673;-80
2023/09/12 05:23:48;;;;;;;0.90;0.82;;;;;;;20.09;61.72;99737.66;5360768;26;33850;-80
2023/09/12 05:26:16;;;;;;;1.65;1.55;;;;;;;20.09;61.84;99732.28;5342646;26;32889;-79
2023/09/12 05:28:43;;;;;;;1.20;1.10;;;;;;;20.15;61.58;99741.63;5361526;26;35033;-80
2023/09/12 05:31:11;;;;;;;1.85;0.80;;;;;;;20.20;61.52;99736.75;5343071;26;33231;-79
2023/09/12 05:33:39;;;;;;;0.47;0.47;;;;;;;20.37;61.08;99743.38;5361051;26;33083;-79
2023/09/12 05:36:07;;;;;;;1.58;1.48;;;;;;;20.42;60.95;99743.81;5325422;26;32950;-79
2023/09/12 05:38:35;;;;;;;0.88;0.88;;;;;;;20.50;60.85;99744.03;5363955;26;33831;-79
2023/09/12 05:41:03;;;;;;;3.47;1.95;;;;;;;20.89;59.94;99744.25;5345610;26;33994;-79
2023/09/12 05:43:31;;;;;;;1.75;1.17;;;;;;;20.84;60.38;99749.16;5344355;26;33424;-79
2023/09/12 05:45:59;;;;;;;0.88;0.73;;;;;;;20.75;60.73;99755.31;5326826;26;33232;-79
2023/09/12 05:48:27;;;;;;;0.95;0.95;;;;;;;20.82;60.41;99754.66;5326853;26;33304;-79
2023/09/12 05:50:54;;;;;;;1.95;1.75;;;;;;;20.88;60.22;99761.31;5362257;26;33540;-79
2023/09/12 05:53:23;;;;;;;4.65;2.65;;;;;;;21.26;59.23;99751.72;5344243;26;33312;-79
2023/09/12 05:55:51;;;;;;;4.18;2.78;;;;;;;21.49;58.37;99745.19;5345139;26;34404;-79
2023/09/12 05:58:20;;;;;;;1.12;1.02;;;;;;;21.65;57.88;99750.03;5344972;26;35382;-79
2023/09/12 06:00:49;;;;;;;4.68;1.00;;;;;;;21.51;58.29;99753.97;5344039;26;32931;-79
2023/09/12 06:03:17;;;;;;;1.98;1.83;;;;;;;21.37;58.20;99757.06;5363480;26;32477;-79
2023/09/12 06:05:44;;;;;;;0.43;0.43;;;;;;;21.64;57.63;99759.06;5344661;26;33532;-79
2023/09/12 06:08:12;;;;;;;6.57;2.10;;;;;;;21.94;57.51;99747.38;5342985;26;32942;-79
2023/09/12 06:10:40;;;;;;;1.52;1.42;;;;;;;21.78;57.23;99750.59;5327543;26;32926;-79
2023/09/12 06:13:08;;;;;;;0.70;0.70;;;;;;;21.78;57.28;99749.75;5345551;26;33008;-80
2023/09/12 06:15:41;;;;;;;2.83;2.47;;;;;;;21.93;56.79;99753.72;5329352;26;32922;-79
2023/09/12 06:18:09;;;;;;;6.25;1.83;;;;;;;22.43;56.10;99759.00;5327625;26;33422;-79
2023/09/12 06:20:37;;;;;;;2.53;1.85;;;;;;;22.61;55.70;99754.56;5365216;26;34575;-79
2023/09/12 06:23:05;;;;;;;1.20;1.10;;;;;;;22.72;56.19;99761.62;5345943;26;33852;-79
2023/09/12 06:25:32;;;;;;;2.37;1.65;;;;;;;22.70;56.12;99756.38;5344668;26;34505;-79
2023/09/12 06:28:00;;;;;;;2.30;1.55;;;;;;;22.74;56.07;99763.19;5363382;26;34718;-79
2023/09/12 06:30:28;;;;;;;0.60;0.60;;;;;;;22.71;56.05;99760.78;5326521;26;33965;-80
2023/09/12 06:32:55;;;;;;;0.25;0.25;;;;;;;22.78;55.61;99760.19;5364914;26;34076;-79
2023/09/12 06:35:23;;;;;;;1.58;1.17;;;;;;;22.83;54.77;99761.44;5345786;26;33921;-79
2023/09/12 06:37:56;;;;;;;0.90;0.90;;;;;;;23.03;53.91;99764.97;5364423;26;33778;-79
2023/09/12 06:40:23;;;;;;;2.00;1.80;;;;;;;23.21;53.00;99763.16;5346239;26;33907;-79
2023/09/12 06:42:51;;;;;;;6.95;1.25;;;;;;;23.70;52.49;99758.41;5346073;26;32221;-79
2023/09/12 06:45:19;;;;;;;3.17;0.98;;;;;;;23.76;52.25;99757.78;5364535;26;33488;-79
2023/09/12 06:47:46;;;;;;;0.57;0.57;;;;;;;23.92;51.97;99756.25;5327654;26;32962;-79
2023/09/12 06:50:14;;;;;;;1.25;1.20;;;;;;;23.96;51.60;99752.25;5364587;26;34352;-79
2023/09/12 06:52:43;;;;;;;14.45;1.87;;;;;;;23.96;51.25;99760.34;5346213;26;33611;-81
2023/09/12 06:55:10;;;;;;;6.82;1.37;;;;;;;24.34;50.98;99756.44;5328159;26;33749;-81
2023/09/12 06:57:38;;;;;;;1.20;1.10;;;;;;;24.63;50.90;99756.19;5344020;26;34328;-80
2023/09/12 07:00:07;;;;;;;1.85;1.27;;;;;;;24.89;49.77;99750.81;5364736;26;33569;-80
2023/09/12 07:02:35;;;;;;;1.55;1.45;;;;;;;24.94;48.99;99753.03;5327382;26;32291;-80
2023/09/12 07:05:03;;;;;;;1.15;1.02;;;;;;;25.09;48.67;99748.75;5346018;26;32811;-80
2023/09/12 07:07:32;;;;;;;1.23;1.12;;;;;;;25.22;48.62;99754.56;5346203;26;34437;-80
2023/09/12 07:10:00;;;;;;;7.60;1.15;;;;;;;25.69;48.02;99756.75;5345475;26;33535;-80
2023/09/12 07:12:48;;;;;;;4.57;1.92;;;;;;;25.41;47.62;99756.16;5349569;26;32804;-80
2023/09/12 07:15:16;;;;;;;10.98;1.60;;;;;;;25.94;48.13;99754.12;5327481;26;32744;-80
2023/09/12 07:17:43;;;;;;;1.70;1.40;;;;;;;26.03;48.18;99761.22;5326876;26;33141;-80
2023/09/12 07:20:13;;;;;;;1.65;1.33;;;;;;;26.16;48.09;99760.72;5362432;26;34330;-80
2023/09/12 07:22:41;;;;;;;7.10;1.45;;;;;;;26.17;46.48;99763.28;5345981;26;32564;-80
2023/09/12 07:25:11;;;;;;;1.48;1.37;;;;;;;26.15;46.26;99759.88;5365689;26;33410;-80
2023/09/12 07:27:39;;;;;;;1.95;1.85;;;;;;;26.32;45.17;99757.19;5346625;26;33901;-80
2023/09/12 07:30:07;;;;;;;2.80;2.05;;;;;;;26.66;44.45;99760.56;5327264;26;32934;-80
2023/09/12 07:32:35;;;;;;;17.92;2.72;;;;;;;26.66;44.57;99762.44;5344513;26;33466;-81
2023/09/12 07:35:03;;;;;;;11.23;3.45;;;;;;;26.97;43.26;99766.09;5364018;26;33458;-80
2023/09/12 07:37:31;;;;;;;2.67;1.98;;;;;;;27.00;44.12;99759.47;5345338;26;34377;-81
2023/09/12 07:39:58;;;;;;;2.53;1.48;;;;;;;26.84;43.62;99754.94;5345809;26;33807;-80
2023/09/12 07:42:26;;;;;;;1.50;1.40;;;;;;;26.98;44.14;99756.94;5364104;26;34516;-80
2023/09/12 07:44:54;;;;;;;14.70;2.30;;;;;;;27.22;43.41;99761.47;5345135;26;33831;-80
2023/09/12 07:47:21;;;;;;;3.80;1.50;;;;;;;27.47;43.76;99766.78;5364262;26;33597;-80
2023/09/12 07:49:53;;;;;;;1.27;1.25;;;;;;;27.65;44.11;99753.81;5364434;26;33414;-81
2023/09/12 07:52:21;;;;;;;2.35;1.30;;;;;;;27.42;43.48;99758.34;5364273;26;33962;-80
2023/09/12 07:54:52;;;;;;;1.15;1.15;;;;;;;27.69;44.45;99749.72;5345934;26;34523;-81
2023/09/12 07:57:20;;;;;;;1.42;0.70;;;;;;;27.71;42.95;99753.12;5346199;26;34048;-81
2023/09/12 07:59:47;;;;;;;3.80;1.87;;;;;;;27.67;43.19;99750.91;5327603;26;32547;-80
2023/09/12 08:02:15;;;;;;;0.82;0.80;;;;;;;27.86;43.95;99755.06;5345027;26;32612;-80
2023/09/12 08:04:43;;;;;;;1.23;1.12;;;;;;;27.86;43.53;99755.06;5364446;26;33844;-80
2023/09/12 08:07:11;;;;;;;1.77;1.27;;;;;;;27.99;43.62;99744.47;5344184;26;32987;-80
2023/09/12 08:09:55;;;;;;;1.33;1.23;;;;;;;28.14;42.83;99748.06;5365774;26;33548;-80
2023/09/12 08:12:26;;;;;;;5.62;1.10;;;;;;;28.36;42.39;99742.84;5363529;26;33518;-80
2023/09/12 08:14:54;;;;;;;17.00;1.77;;;;;;;28.32;42.26;99743.19;5344925;26;32600;-81
2023/09/12 08:17:23;;;;;;;3.20;1.05;;;;;;;28.57;41.66;99742.97;5325025;26;33822;-80
2023/09/12 08:19:51;;;;;;;1.15;1.05;;;;;;;28.53;41.73;99750.69;5343028;26;33245;-80
2023/09/12 08:22:19;;;;;;;5.03;2.03;;;;;;;28.91;41.62;99738.91;5343172;26;33366;-80
2023/09/12 08:24:47;;;;;;;1.67;1.58;;;;;;;29.23;40.57;99738.53;5342815;26;34053;-80
2023/09/12 08:27:15;;;;;;;2.15;1.85;;;;;;;29.26;40.75;99742.78;5361681;26;33901;-81
2023/09/12 08:29:44;;;;;;;0.62;0.62;;;;;;;29.53;39.78;99743.94;5361330;26;33987;-80
2023/09/12 08:32:12;;;;;;;1.08;0.98;;;;;;;29.38;39.68;99735.81;5342688;26;32462;-80
2023/09/12 08:34:39;;;;;;;1.37;1.23;;;;;;;29.51;38.40;99740.56;5343129;26;33948;-80
2023/09/12 08:37:07;;;;;;;1.80;1.12;;;;;;;29.58;38.40;99736.09;5361380;26;34056;-81
2023/09/12 08:39:43;;;;;;;1.23;1.08;;;;;;;29.68;37.68;99739.34;5342673;26;34604;-80
2023/09/12 08:42:13;;;;;;;8.25;1.37;;;;;;;29.87;37.81;99737.88;5324643;26;33260;-81
2023/09/12 08:44:44;;;;;;;1.80;1.02;;;;;;;30.32;36.02;99731.22;5342647;26;33010;-80
2023/09/12 08:47:14;;;;;;;15.02;2.62;;;;;;;30.26;35.94;99734.72;5342997;26;32937;-80
2023/09/12 08:49:44;;;;;;;1.05;1.05;;;;;;;30.49;36.53;99741.84;5361602;26;33507;-80
2023/09/12 08:52:12;;;;;;;3.90;1.35;;;;;;;30.12;36.57;99735.63;5360909;26;32868;-80
2023/09/12 08:54:40;;;;;;;1.10;1.00;;;;;;;30.30;35.97;99740.63;5342396;26;33968;-80
2023/09/12 08:57:10;;;;;;;4.60;2.30;;;;;;;30.69;35.14;99744.72;5324765;26;33191;-80
2023/09/12 08:59:41;;;;;;;1.73;1.33;;;;;;;30.80;34.83;99749.63;5343375;26;32689;-80
2023/09/12 09:02:09;;;;;;;1.52;1.25;;;;;;;30.92;33.94;99739.03;5342982;26;32427;-81
2023/09/12 09:04:38;;;;;;;2.78;1.83;;;;;;;30.89;33.87;99740.25;5323794;26;32690;-80
2023/09/12 09:07:08;;;;;;;1.77;1.67;;;;;;;31.19;33.28;99740.84;5361450;26;34128;-80
2023/09/12 09:09:36;;;;;;;7.00;1.87;;;;;;;31.23;33.25;99733.09;5342464;26;32880;-80
2023/09/12 09:12:08;;;;;;;1.05;0.98;;;;;;;31.30;32.47;99743.03;5342436;26;33352;-81
2023/09/12 09:14:36;;;;;;;2.10;1.30;;;;;;;31.02;32.76;99729.44;5324513;26;32865;-80
2023/09/12 09:17:03;;;;;;;1.95;1.83;;;;;;;31.65;31.50;99723.84;5324174;26;32735;-81
2023/09/12 09:19:41;;;;;;;1.65;1.52;;;;;;;31.58;31.93;99734.75;5324091;26;33204;-80
2023/09/12 09:22:09;;;;;;;1.45;1.33;;;;;;;31.70;32.18;99721.34;5342749;26;34425;-82
2023/09/12 09:24:37;;;;;;;1.98;1.73;;;;;;;31.83;32.91;99715.94;5342848;26;33829;-80
2023/09/12 09:27:06;;;;;;;2.60;1.45;;;;;;;31.88;31.30;99718.06;5342967;26;34074;-80
2023/09/12 09:29:46;;;;;;;2.05;1.65;;;;;;;32.03;29.70;99721.44;5342677;26;34264;-80
2023/09/12 09:32:18;;;;;;;1.75;0.95;;;;;;;32.21;30.75;99720.84;5323972;26;33317;-80
2023/09/12 09:34:46;;;;;;;2.62;1.92;;;;;;;32.44;29.91;99725.06;5342892;26;33931;-80
2023/09/12 09:37:15;;;;;;;1.98;1.20;;;;;;;32.59;29.95;99717.50;5361391;26;33771;-80
2023/09/12 09:39:43;;;;;;;1.08;0.90;;;;;;;32.40;30.95;99721.09;5342201;26;33592;-81
2023/09/12 09:42:12;;;;;;;2.53;1.40;;;;;;;32.66;28.84;99726.50;5343220;26;34149;-80
2023/09/12 09:44:40;;;;;;;2.10;0.93;;;;;;;32.94;29.60;99722.72;5343535;26;33623;-80
2023/09/12 09:47:08;;;;;;;1.37;1.08;;;;;;;32.62;28.91;99719.81;5343469;26;34008;-80
2023/09/12 09:49:35;;;;;;;0.65;0.65;;;;;;;32.59;28.55;99715.59;5325424;26;32846;-82
2023/09/12 09:52:04;;;;;;;3.20;1.00;;;;;;;32.93;29.57;99718.31;5362550;26;33187;-80
2023/09/12 09:54:32;;;;;;;2.70;1.87;;;;;;;32.90;27.83;99722.28;5343134;26;32576;-80
2023/09/12 09:57:00;;;;;;;2.45;1.08;;;;;;;32.05;27.64;99715.78;5362233;26;34810;-80
2023/09/12 09:59:28;;;;;;;2.62;1.27;;;;;;;32.33;27.77;99718.28;5342887;26;33308;-80
2023/09/12 10:01:57;;;;;;;1.90;1.05;;;;;;;32.91;28.02;99706.75;5343070;26;33804;-81
2023/09/12 10:04:27;;;;;;;1.33;1.23;;;;;;;32.88;28.10;99711.53;5343512;26;33948;-80
2023/09/12 10:06:57;;;;;;;1.17;0.90;;;;;;;32.93;29.26;99710.09;5343408;26;32602;-80
2023/09/12 10:09:28;;;;;;;1.02;0.85;;;;;;;32.87;27.40;99709.03;5324581;26;32995;-80
2023/09/12 10:11:57;;;;;;;2.87;1.20;;;;;;;32.60;28.40;99705.50;5344123;26;33200;-81
2023/09/12 10:14:27;;;;;;;12.65;2.17;;;;;;;33.03;29.13;99699.53;5343537;26;33749;-80
2023/09/12 10:17:01;;;;;;;2.17;1.98;;;;;;;33.30;28.41;99703.03;5324304;26;32854;-80
2023/09/12 10:19:50;;;;;;;0.75;0.75;;;;;;;33.07;28.56;99703.53;5344450;26;32929;-80
2023/09/12 10:22:24;;;;;;;3.25;1.73;;;;;;;33.31;27.33;99700.06;5343686;26;34098;-80
2023/09/12 10:24:53;;;;;;;1.62;1.52;;;;;;;33.68;27.96;99692.12;5343330;26;35282;-80
2023/09/12 10:27:22;;;;;;;2.58;1.52;;;;;;;33.70;28.43;99694.63;5343255;26;33972;-80
2023/09/12 10:29:52;;;;;;;0.62;0.62;;;;;;;33.82;28.00;99692.88;5342953;26;33874;-80
2023/09/12 10:32:21;;;;;;;1.77;1.12;;;;;;;33.93;28.00;99696.78;5362087;26;34437;-81
2023/09/12 10:34:49;;;;;;;13.40;1.45;;;;;;;33.88;27.15;99687.34;5362774;26;33486;-81
2023/09/12 10:37:17;;;;;;;1.05;1.00;;;;;;;34.08;27.77;99697.34;5327200;26;33655;-81
2023/09/12 10:39:45;;;;;;;0.82;0.50;;;;;;;34.01;27.64;99693.84;5327264;26;34452;-80
2023/09/12 10:42:13;;;;;;;1.20;1.20;;;;;;;34.21;26.13;99686.28;5345783;26;33913;-80
2023/09/12 10:44:41;;;;;;;1.60;1.08;;;;;;;34.54;25.06;99679.69;5346008;26;33988;-81
2023/09/12 10:47:09;;;;;;;1.45;0.90;;;;;;;34.36;26.16;99677.72;5345836;26;33211;-80
2023/09/12 10:49:37;;;;;;;3.95;1.95;;;;;;;34.10;24.35;99681.53;5364437;26;33677;-81
2023/09/12 10:52:05;;;;;;;0.65;0.65;;;;;;;34.54;25.81;99679.69;5363161;26;32588;-80
2023/09/12 10:54:38;;;;;;;3.60;1.65;;;;;;;34.82;26.06;99669.06;5345581;26;34276;-80
2023/09/12 10:57:08;;;;;;;10.40;1.12;;;;;;;34.78;24.89;99678.81;5345955;26;33834;-80
2023/09/12 10:59:36;;;;;;;1.15;1.05;;;;;;;34.61;24.96;99675.84;5345617;26;34717;-80
2023/09/12 11:02:29;;;;;;;0.98;0.95;;;;;;;34.25;25.75;99676.56;5363924;26;33010;-81
2023/09/12 11:04:58;;;;;;;1.35;0.98;;;;;;;34.51;25.32;99670.00;5361552;26;34658;-80
2023/09/12 11:07:31;;;;;;;1.17;1.08;;;;;;;34.48;25.51;99669.62;5361846;26;34093;-80
2023/09/12 11:10:15;;;;;;;2.25;1.25;;;;;;;34.56;25.59;99667.41;5345632;26;32967;-80
2023/09/12 11:12:43;;;;;;;2.42;1.30;;;;;;;34.16;24.72;99658.72;5364231;26;33131;-80
2023/09/12 11:15:11;;;;;;;1.35;1.25;;;;;;;34.46;25.58;99660.78;5345549;26;32841;-81
2023/09/12 11:17:40;;;;;;;19.80;1.15;;;;;;;35.01;24.71;99660.84;5345995;26;35336;-80
2023/09/12 11:20:12;;;;;;;1.08;0.98;;;;;;;34.90;23.72;99654.22;5364284;26;33695;-80
2023/09/12 11:22:44;;;;;;;1.05;1.00;;;;;;;34.89;23.29;99650.59;5345176;26;32783;-81
2023/09/12 11:25:15;;;;;;;1.15;1.05;;;;;;;34.99;23.33;99650.13;5343047;26;34642;-81
2023/09/12 11:27:46;;;;;;;0.93;0.93;;;;;;;34.55;24.25;99657.53;5361429;26;34557;-81
2023/09/12 11:30:14;;;;;;;1.23;1.05;;;;;;;34.43;23.46;99655.75;5343354;26;33454;-81
2023/09/12 11:32:44;;;;;;;0.70;0.70;;;;;;;34.10;23.90;99645.91;5342961;26;32284;-81
2023/09/12 11:35:13;;;;;;;2.20;1.05;;;;;;;34.35;24.55;99649.47;5324859;26;33902;-80
2023/09/12 11:37:49;;;;;;;3.92;0.90;;;;;;;34.51;23.40;99644.50;5343306;26;34992;-81
2023/09/12 11:40:20;;;;;;;0.65;0.65;;;;;;;34.63;23.53;99637.22;5324354;26;32468;-81
2023/09/12 11:42:49;;;;;;;1.73;0.93;;;;;;;34.85;23.10;99641.19;5361233;26;34216;-80